createdAt,value
2018-03-10T00:01:58.458Z,99.90
2018-03-10T00:04:24.980Z,99.90
2018-03-10T00:06:51.288Z,99.90
2018-03-10T00:09:17.560Z,99.90
2018-03-10T00:11:43.849Z,99.90
2018-03-10T00:14:10.270Z,99.90
2018-03-10T00:16:36.638Z,99.90
2018-03-10T00:19:02.923Z,99.90
2018-03-10T00:21:29.345Z,99.90
2018-03-10T00:23:55.640Z,99.90
2018-03-10T00:26:22.659Z,99.90
2018-03-10T00:28:48.955Z,99.90
2018-03-10T00:31:15.233Z,99.90
2018-03-10T00:33:41.491Z,99.90
2018-03-10T00:36:07.808Z,99.90
2018-03-10T00:38:34.061Z,99.90
2018-03-10T00:41:01.056Z,99.90
2018-03-10T00:43:27.320Z,99.90
2018-03-10T00:45:53.570Z,99.90
2018-03-10T00:48:20.627Z,99.90
2018-03-10T00:50:46.940Z,99.90
2018-03-10T00:53:13.205Z,99.90
2018-03-10T00:55:39.463Z,99.90
2018-03-10T00:58:05.756Z,99.90
2018-03-10T01:00:32.022Z,99.90
2018-03-10T01:02:58.273Z,99.90
2018-03-10T01:05:24.538Z,99.90
2018-03-10T01:07:50.809Z,99.90
2018-03-10T01:10:17.114Z,99.90
2018-03-10T01:12:44.490Z,99.90
2018-03-10T01:15:10.734Z,99.90
2018-03-10T01:17:37.001Z,99.90
2018-03-10T01:20:04.092Z,99.90
2018-03-10T01:22:30.344Z,99.90
2018-03-10T01:24:56.605Z,99.90
2018-03-10T01:27:23.663Z,99.90
2018-03-10T01:29:49.921Z,99.90
2018-03-10T01:32:16.196Z,99.90
2018-03-10T01:34:43.241Z,99.90
2018-03-10T01:37:10.250Z,99.90
2018-03-10T01:39:36.501Z,99.90
2018-03-10T01:42:02.797Z,99.90
2018-03-10T01:44:29.036Z,99.90
2018-03-10T01:46:55.364Z,99.90
2018-03-10T01:49:22.608Z,99.90
2018-03-10T01:51:48.879Z,99.90
2018-03-10T01:54:15.252Z,99.90
2018-03-10T01:56:41.551Z,99.90
2018-03-10T01:59:07.808Z,99.90
2018-03-10T02:01:34.104Z,99.90
2018-03-10T02:04:00.389Z,99.90
2018-03-10T02:06:26.656Z,99.90
2018-03-10T02:08:52.955Z,99.90
2018-03-10T02:11:19.228Z,99.90
2018-03-10T02:13:45.543Z,99.90
2018-03-10T02:16:11.813Z,99.90
2018-03-10T02:18:38.116Z,99.90
2018-03-10T02:21:04.445Z,99.90
2018-03-10T02:23:30.708Z,99.90
2018-03-10T02:25:56.984Z,99.90
2018-03-10T02:28:23.280Z,99.90
2018-03-10T02:30:49.527Z,99.90
2018-03-10T02:33:15.861Z,99.90
2018-03-10T02:35:42.926Z,99.90
2018-03-10T02:38:09.140Z,99.90
2018-03-10T02:40:35.415Z,99.90
2018-03-10T02:43:02.444Z,99.90
2018-03-10T02:45:28.728Z,99.90
2018-03-10T02:47:55.088Z,99.90
2018-03-10T02:50:21.360Z,99.90
2018-03-10T02:52:48.384Z,99.90
2018-03-10T02:55:14.672Z,99.90
2018-03-10T02:57:40.948Z,99.90
2018-03-10T03:00:07.227Z,99.90
2018-03-10T03:02:33.519Z,99.90
2018-03-10T03:05:00.516Z,99.90
2018-03-10T03:07:26.801Z,99.90
2018-03-10T03:09:53.815Z,99.90
2018-03-10T03:12:20.096Z,99.90
2018-03-10T03:14:47.100Z,99.90
2018-03-10T03:17:13.375Z,99.90
2018-03-10T03:19:39.627Z,99.90
2018-03-10T03:22:05.884Z,99.90
2018-03-10T03:24:32.202Z,99.90
2018-03-10T03:26:58.445Z,99.90
2018-03-10T03:29:24.712Z,99.90
2018-03-10T03:31:51.769Z,99.90
2018-03-10T03:34:18.021Z,99.90
2018-03-10T03:36:44.319Z,99.90
2018-03-10T03:39:11.340Z,99.90
2018-03-10T03:41:37.608Z,99.90
2018-03-10T03:44:03.856Z,99.90
2018-03-10T03:46:30.144Z,99.90
2018-03-10T03:48:56.416Z,99.90
2018-03-10T03:51:22.727Z,99.90
2018-03-10T03:53:49.007Z,99.90
2018-03-10T03:56:15.270Z,99.90
2018-03-10T03:58:42.266Z,99.90
2018-03-10T04:01:08.532Z,99.90
2018-03-10T04:03:34.792Z,99.90
2018-03-10T04:08:34.133Z,99.90
2018-03-10T04:11:00.407Z,99.90
2018-03-10T04:13:26.669Z,99.90
2018-03-10T04:15:52.992Z,99.90
2018-03-10T04:18:19.988Z,99.90
2018-03-10T04:20:46.233Z,99.90
2018-03-10T04:23:12.513Z,99.90
2018-03-10T04:25:38.805Z,99.90
2018-03-10T04:28:05.083Z,99.90
2018-03-10T04:30:31.361Z,99.90
2018-03-10T04:32:57.608Z,99.90
2018-03-10T04:35:24.684Z,99.90
2018-03-10T04:37:50.952Z,99.90
2018-03-10T04:40:17.204Z,99.90
2018-03-10T04:42:43.472Z,99.90
2018-03-10T04:45:09.757Z,99.90
2018-03-10T04:47:36.000Z,99.90
2018-03-10T04:50:03.016Z,99.90
2018-03-10T04:52:29.558Z,99.90
2018-03-10T04:54:55.819Z,99.90
2018-03-10T04:57:22.821Z,99.90
2018-03-10T04:59:49.104Z,99.90
2018-03-10T05:02:15.396Z,99.90
2018-03-10T05:04:41.664Z,99.90
2018-03-10T05:07:07.945Z,99.90
2018-03-10T05:09:34.212Z,99.90
2018-03-10T05:12:01.200Z,99.90
2018-03-10T05:14:27.740Z,99.90
2018-03-10T05:16:54.005Z,99.90
2018-03-10T05:19:20.252Z,99.90
2018-03-10T05:21:47.543Z,99.90
2018-03-10T05:24:13.791Z,99.90
2018-03-10T05:26:40.035Z,99.90
2018-03-10T05:29:06.353Z,99.90
2018-03-10T05:31:32.601Z,99.90
2018-03-10T05:33:58.852Z,99.90
2018-03-10T05:36:25.872Z,99.90
2018-03-10T05:38:52.132Z,99.90
2018-03-10T05:41:19.161Z,99.90
2018-03-10T05:43:45.443Z,99.90
2018-03-10T05:46:11.710Z,99.90
2018-03-10T05:48:37.996Z,99.90
2018-03-10T05:51:04.284Z,99.90
2018-03-10T05:53:30.532Z,99.90
2018-03-10T05:55:56.798Z,99.90
2018-03-10T05:58:23.078Z,99.90
2018-03-10T06:00:49.351Z,99.90
2018-03-10T06:03:15.628Z,99.90
2018-03-10T06:05:41.904Z,99.90
2018-03-10T06:08:08.162Z,99.90
2018-03-10T06:10:34.503Z,99.90
2018-03-10T06:13:00.806Z,99.90
2018-03-10T06:15:27.112Z,99.90
2018-03-10T06:17:53.384Z,99.90
2018-03-10T06:20:19.724Z,99.90
2018-03-10T06:22:45.985Z,99.90
2018-03-10T06:25:13.001Z,99.90
2018-03-10T06:27:39.257Z,99.90
2018-03-10T06:30:05.583Z,99.90
2018-03-10T06:32:32.589Z,99.90
2018-03-10T06:34:58.896Z,99.90
2018-03-10T06:37:25.165Z,99.90
2018-03-10T06:39:51.432Z,99.90
2018-03-10T06:42:18.080Z,99.90
2018-03-10T06:44:44.338Z,99.90
2018-03-10T06:47:10.766Z,99.90
2018-03-10T06:49:37.387Z,99.90
2018-03-10T06:52:03.643Z,99.90
2018-03-10T06:54:29.890Z,99.90
2018-03-10T06:56:56.184Z,99.90
2018-03-10T06:59:22.447Z,99.90
2018-03-10T07:01:48.714Z,99.90
2018-03-10T07:04:15.768Z,99.90
2018-03-10T07:06:42.020Z,99.90
2018-03-10T07:09:08.268Z,99.90
2018-03-10T07:11:34.547Z,99.90
2018-03-10T07:14:01.573Z,99.90
2018-03-10T07:16:27.856Z,99.90
2018-03-10T07:18:54.160Z,99.90
2018-03-10T07:21:21.183Z,99.90
2018-03-10T07:23:47.479Z,99.70
2018-03-10T07:26:13.764Z,99.90
2018-03-10T07:28:40.772Z,99.60
2018-03-10T07:31:07.026Z,99.40
2018-03-10T07:33:33.296Z,99.10
2018-03-10T07:35:59.567Z,99.10
2018-03-10T07:38:25.874Z,99.10
2018-03-10T07:40:52.146Z,98.90
2018-03-10T07:43:18.413Z,98.70
2018-03-10T07:45:44.736Z,98.60
2018-03-10T07:48:11.056Z,98.70
2018-03-10T07:50:37.384Z,98.60
2018-03-10T07:53:04.404Z,97.90
2018-03-10T07:55:30.684Z,98.00
2018-03-10T07:57:56.959Z,97.80
2018-03-10T08:00:23.243Z,97.60
2018-03-10T08:02:49.544Z,96.80
2018-03-10T08:05:15.908Z,96.50
2018-03-10T08:07:42.165Z,95.90
2018-03-10T08:10:08.443Z,96.10
2018-03-10T08:12:35.476Z,96.50
2018-03-10T08:15:02.556Z,96.20
2018-03-10T08:17:28.860Z,96.30
2018-03-10T08:19:56.112Z,95.60
2018-03-10T08:22:23.120Z,95.00
2018-03-10T08:24:49.384Z,94.80
2018-03-10T08:27:16.408Z,94.60
2018-03-10T08:29:42.673Z,94.60
2018-03-10T08:32:09.069Z,94.30
2018-03-10T08:34:36.108Z,94.80
2018-03-10T08:37:02.413Z,94.80
2018-03-10T08:39:28.754Z,94.30
2018-03-10T08:41:55.729Z,93.40
2018-03-10T08:44:22.162Z,93.00
2018-03-10T08:46:49.593Z,92.10
2018-03-10T08:49:15.889Z,92.40
2018-03-10T08:51:42.157Z,93.00
2018-03-10T08:54:08.524Z,92.80
2018-03-10T08:56:34.786Z,93.60
2018-03-10T08:59:01.068Z,93.60
2018-03-10T09:01:27.353Z,93.40
2018-03-10T09:03:53.633Z,92.60
2018-03-10T09:06:19.909Z,91.80
2018-03-10T09:08:46.480Z,91.80
2018-03-10T09:11:12.913Z,91.90
2018-03-10T09:13:39.234Z,92.10
2018-03-10T09:16:06.048Z,92.10
2018-03-10T09:18:32.291Z,92.00
2018-03-10T09:20:58.604Z,92.20
2018-03-10T09:23:24.906Z,92.20
2018-03-10T09:25:51.183Z,92.30
2018-03-10T09:28:17.529Z,92.00
2018-03-10T09:30:44.137Z,91.90
2018-03-10T09:33:10.403Z,91.20
2018-03-10T09:35:37.444Z,91.50
2018-03-10T09:38:03.752Z,91.30
2018-03-10T09:40:30.045Z,91.20
2018-03-10T09:42:57.080Z,90.60
2018-03-10T09:45:23.408Z,90.70
2018-03-10T09:47:49.757Z,90.70
2018-03-10T09:50:16.068Z,90.60
2018-03-10T09:52:42.379Z,90.50
2018-03-10T09:55:08.644Z,90.30
2018-03-10T09:57:34.904Z,89.90
2018-03-10T10:00:01.193Z,90.40
2018-03-10T10:02:28.216Z,90.20
2018-03-10T10:04:54.483Z,90.00
2018-03-10T10:07:20.753Z,89.90
2018-03-10T10:09:47.025Z,90.80
2018-03-10T10:12:13.358Z,90.90
2018-03-10T10:14:39.655Z,90.20
2018-03-10T10:17:05.955Z,90.30
2018-03-10T10:19:32.229Z,90.50
2018-03-10T10:21:58.537Z,90.30
2018-03-10T10:24:24.807Z,90.00
2018-03-10T10:26:51.050Z,88.70
2018-03-10T10:29:17.620Z,89.40
2018-03-10T10:31:43.882Z,88.90
2018-03-10T10:34:10.196Z,89.90
2018-03-10T10:36:36.509Z,90.10
2018-03-10T10:39:02.808Z,90.70
2018-03-10T10:41:29.080Z,90.00
2018-03-10T10:43:55.495Z,90.00
2018-03-10T10:46:21.732Z,89.00
2018-03-10T10:48:48.039Z,88.00
2018-03-10T10:51:15.076Z,87.00
2018-03-10T10:53:41.332Z,87.10
2018-03-10T10:56:08.332Z,83.10
2018-03-10T10:58:34.588Z,82.60
2018-03-10T11:01:06.772Z,82.20
2018-03-10T11:03:33.814Z,82.80
2018-03-10T11:06:00.121Z,82.60
2018-03-10T11:08:26.361Z,80.20
2018-03-10T11:10:52.673Z,81.40
2018-03-10T11:13:19.445Z,80.90
2018-03-10T11:15:46.499Z,80.00
2018-03-10T11:18:13.792Z,79.60
2018-03-10T11:20:40.144Z,79.60
2018-03-10T11:23:06.430Z,82.00
2018-03-10T11:25:33.052Z,80.80
2018-03-10T11:28:00.031Z,82.10
2018-03-10T11:30:26.288Z,81.70
2018-03-10T11:32:52.557Z,81.40
2018-03-10T11:35:18.817Z,80.00
2018-03-10T11:37:45.070Z,78.30
2018-03-10T11:40:11.337Z,79.00
2018-03-10T11:42:39.140Z,75.90
2018-03-10T11:45:05.404Z,76.20
2018-03-10T11:47:31.700Z,77.10
2018-03-10T11:49:57.955Z,77.10
2018-03-10T11:52:24.268Z,73.80
2018-03-10T11:54:50.552Z,75.30
2018-03-10T11:57:17.548Z,71.20
2018-03-10T11:59:43.817Z,70.90
2018-03-10T12:02:10.084Z,71.70
2018-03-10T12:04:36.415Z,73.40
2018-03-10T12:07:02.634Z,74.40
2018-03-10T12:09:28.907Z,73.60
2018-03-10T12:11:55.179Z,73.30
2018-03-10T12:14:22.242Z,69.10
2018-03-10T12:16:48.511Z,68.60
2018-03-10T12:19:14.800Z,67.60
2018-03-10T12:21:41.833Z,71.90
2018-03-10T12:24:08.388Z,71.70
2018-03-10T12:26:34.676Z,71.40
2018-03-10T12:29:00.932Z,72.70
2018-03-10T12:31:28.308Z,73.60
2018-03-10T12:33:54.556Z,73.70
2018-03-10T12:36:20.828Z,74.40
2018-03-10T12:38:47.132Z,74.00
2018-03-10T12:41:13.410Z,73.20
2018-03-10T12:43:39.684Z,73.30
2018-03-10T12:46:06.011Z,76.00
2018-03-10T12:48:32.284Z,75.10
2018-03-10T12:50:58.545Z,74.80
2018-03-10T12:53:24.852Z,73.80
2018-03-10T12:55:51.847Z,75.00
2018-03-10T12:58:18.099Z,75.00
2018-03-10T13:00:45.398Z,75.20
2018-03-10T13:03:11.648Z,75.20
2018-03-10T13:05:37.908Z,75.80
2018-03-10T13:08:04.225Z,75.30
2018-03-10T13:10:30.481Z,77.00
2018-03-10T13:12:56.767Z,80.00
2018-03-10T13:15:23.073Z,79.70
2018-03-10T13:17:49.417Z,78.50
2018-03-10T13:20:15.699Z,78.70
2018-03-10T13:22:41.968Z,77.10
2018-03-10T13:25:08.950Z,78.30
2018-03-10T13:27:35.208Z,78.20
2018-03-10T13:30:01.483Z,77.80
2018-03-10T13:32:27.773Z,80.00
2018-03-10T13:34:54.041Z,80.00
2018-03-10T13:37:20.680Z,79.80
2018-03-10T13:39:46.947Z,80.20
2018-03-10T13:42:13.204Z,80.50
2018-03-10T13:44:39.477Z,81.30
2018-03-10T13:47:05.780Z,82.30
2018-03-10T13:49:32.053Z,81.80
2018-03-10T13:51:58.316Z,82.20
2018-03-10T13:54:25.861Z,82.50
2018-03-10T13:56:52.133Z,82.80
2018-03-10T13:59:19.168Z,83.70
2018-03-10T14:01:46.200Z,83.00
2018-03-10T14:04:24.813Z,83.30
2018-03-10T14:06:51.079Z,83.40
2018-03-10T14:09:17.343Z,81.80
2018-03-10T14:11:43.719Z,82.50
2018-03-10T14:14:09.989Z,81.50
2018-03-10T14:16:36.231Z,82.80
2018-03-10T14:19:02.554Z,82.40
2018-03-10T14:21:28.826Z,82.20
2018-03-10T14:23:55.082Z,82.40
2018-03-10T14:26:22.095Z,82.70
2018-03-10T14:28:48.376Z,82.40
2018-03-10T14:31:14.675Z,83.20
2018-03-10T14:33:40.994Z,84.70
2018-03-10T14:36:07.288Z,84.20
2018-03-10T14:38:33.591Z,84.20
2018-03-10T14:43:32.752Z,84.20
2018-03-10T14:45:59.036Z,84.00
2018-03-10T14:48:25.302Z,84.70
2018-03-10T14:50:51.578Z,84.50
2018-03-10T14:53:17.865Z,85.80
2018-03-10T14:55:44.157Z,85.00
2018-03-10T14:58:10.458Z,86.20
2018-03-10T15:00:36.742Z,86.10
2018-03-10T15:03:03.017Z,86.70
2018-03-10T15:05:29.304Z,87.70
2018-03-10T15:07:55.596Z,88.90
2018-03-10T15:10:22.580Z,89.30
2018-03-10T15:12:48.837Z,89.20
2018-03-10T15:15:15.136Z,88.70
2018-03-10T15:17:41.405Z,89.30
2018-03-10T15:20:07.672Z,89.10
2018-03-10T15:22:34.703Z,90.50
2018-03-10T15:25:01.700Z,90.60
2018-03-10T15:27:27.977Z,90.60
2018-03-10T15:29:55.037Z,90.70
2018-03-10T15:32:21.372Z,90.70
2018-03-10T15:34:47.686Z,90.70
2018-03-10T15:37:14.002Z,91.50
2018-03-10T15:39:40.273Z,91.50
2018-03-10T15:42:06.573Z,92.00
2018-03-10T15:44:32.876Z,91.70
2018-03-10T15:46:59.174Z,92.20
2018-03-10T15:49:25.441Z,92.80
2018-03-10T15:51:51.723Z,93.70
2018-03-10T15:54:18.069Z,94.40
2018-03-10T15:56:44.365Z,94.60
2018-03-10T15:59:11.728Z,95.20
2018-03-10T16:01:37.992Z,95.20
2018-03-10T16:04:04.288Z,94.80
2018-03-10T16:06:30.595Z,95.20
2018-03-10T16:08:57.608Z,95.50
2018-03-10T16:11:23.860Z,95.50
2018-03-10T16:13:50.551Z,95.50
2018-03-10T16:16:16.842Z,95.80
2018-03-10T16:18:43.139Z,95.70
2018-03-10T16:21:09.428Z,96.30
2018-03-10T16:23:35.723Z,96.40
2018-03-10T16:26:01.976Z,96.60
2018-03-10T16:28:28.302Z,97.40
2018-03-10T16:30:54.616Z,97.10
2018-03-10T16:33:20.889Z,96.60
2018-03-10T16:35:47.183Z,96.40
2018-03-10T16:38:14.237Z,96.10
2018-03-10T16:40:40.562Z,96.00
2018-03-10T16:43:06.830Z,96.30
2018-03-10T16:45:33.114Z,96.20
2018-03-10T16:47:59.408Z,96.50
2018-03-10T16:50:25.729Z,96.40
2018-03-10T16:52:51.992Z,96.70
2018-03-10T16:55:18.250Z,96.30
2018-03-10T16:57:45.277Z,96.50
2018-03-10T17:00:11.542Z,96.70
2018-03-10T17:02:37.857Z,97.10
2018-03-10T17:05:04.200Z,97.10
2018-03-10T17:07:30.470Z,97.10
2018-03-10T17:09:56.756Z,97.50
2018-03-10T17:12:23.432Z,97.60
2018-03-10T17:14:49.697Z,98.20
2018-03-10T17:17:16.716Z,98.80
2018-03-10T17:19:43.008Z,98.80
2018-03-10T17:22:09.268Z,98.80
2018-03-10T17:24:35.564Z,98.90
2018-03-10T17:27:02.597Z,99.50
2018-03-10T17:29:29.657Z,99.60
2018-03-10T17:31:56.789Z,99.80
2018-03-10T17:34:23.848Z,99.90
2018-03-10T17:36:50.880Z,99.90
2018-03-10T17:39:17.940Z,99.90
2018-03-10T17:41:44.993Z,99.90
2018-03-10T17:44:11.983Z,99.90
2018-03-10T17:46:38.236Z,99.90
2018-03-10T17:49:04.816Z,99.90
2018-03-10T17:51:31.828Z,99.90
2018-03-10T17:53:58.111Z,99.90
2018-03-10T17:56:24.413Z,99.90
2018-03-10T17:58:52.344Z,99.90
2018-03-10T18:01:18.620Z,99.90
2018-03-10T18:03:45.648Z,99.90
2018-03-10T18:06:11.916Z,99.90
2018-03-10T18:08:38.195Z,99.90
2018-03-10T18:11:04.509Z,99.90
2018-03-10T18:13:30.796Z,99.90
2018-03-10T18:15:57.052Z,99.90
2018-03-10T18:18:23.338Z,99.90
2018-03-10T18:20:50.350Z,99.90
2018-03-10T18:23:16.596Z,99.90
2018-03-10T18:25:42.906Z,99.90
2018-03-10T18:28:09.150Z,99.90
2018-03-10T18:30:35.394Z,99.90
2018-03-10T18:33:01.703Z,99.90
2018-03-10T18:35:28.037Z,99.90
2018-03-10T18:37:54.292Z,99.90
2018-03-10T18:40:21.345Z,99.90
2018-03-10T18:42:48.380Z,99.90
2018-03-10T18:45:14.633Z,99.90
2018-03-10T18:47:41.663Z,99.90
2018-03-10T18:50:08.674Z,99.90
2018-03-10T18:52:34.942Z,99.90
2018-03-10T18:55:01.998Z,99.90
2018-03-10T18:57:29.016Z,99.90
2018-03-10T18:59:55.301Z,99.90
2018-03-10T19:02:21.632Z,99.90
2018-03-10T19:04:47.938Z,99.90
2018-03-10T19:07:15.051Z,99.90
2018-03-10T19:09:41.374Z,99.90
2018-03-10T19:12:07.684Z,99.90
2018-03-10T19:14:33.980Z,99.90
2018-03-10T19:17:01.003Z,99.90
2018-03-10T19:19:27.264Z,99.90
2018-03-10T19:21:53.567Z,99.90
2018-03-10T19:24:19.872Z,99.90
2018-03-10T19:26:46.147Z,99.90
2018-03-10T19:29:13.166Z,99.90
2018-03-10T19:31:39.480Z,99.90
2018-03-10T19:34:05.732Z,99.90
2018-03-10T19:36:31.983Z,99.90
2018-03-10T19:38:59.240Z,99.90
2018-03-10T19:41:25.506Z,99.90
2018-03-10T19:43:51.774Z,99.90
2018-03-10T19:46:18.098Z,99.90
2018-03-10T19:48:44.378Z,99.90
2018-03-10T19:51:10.642Z,99.90
2018-03-10T19:53:36.896Z,99.90
2018-03-10T19:56:03.332Z,99.90
2018-03-10T19:58:30.359Z,99.90
2018-03-10T20:00:56.644Z,99.90
2018-03-10T20:03:22.932Z,99.90
2018-03-10T20:05:49.200Z,99.90
2018-03-10T20:08:15.487Z,99.90
2018-03-10T20:10:41.818Z,99.90
2018-03-10T20:13:08.129Z,99.90
2018-03-10T20:15:34.483Z,99.90
2018-03-10T20:18:00.768Z,99.90
2018-03-10T20:20:27.052Z,99.90
2018-03-10T20:22:54.109Z,99.80
2018-03-10T20:25:21.132Z,99.90
2018-03-10T20:27:47.408Z,99.90
2018-03-10T20:30:13.722Z,99.90
2018-03-10T20:32:40.744Z,99.90
2018-03-10T20:35:07.761Z,99.90
2018-03-10T20:37:34.040Z,99.90
2018-03-10T20:40:01.119Z,99.90
2018-03-10T20:42:27.359Z,99.90
2018-03-10T20:44:53.631Z,99.90
2018-03-10T20:47:19.900Z,99.90
2018-03-10T20:49:46.164Z,99.90
2018-03-10T20:52:12.692Z,99.90
2018-03-10T20:54:39.019Z,99.90
2018-03-10T20:57:05.286Z,99.90
2018-03-10T20:59:31.565Z,99.90
2018-03-10T21:01:57.847Z,99.90
2018-03-10T21:04:24.128Z,99.90
2018-03-10T21:06:50.408Z,99.90
2018-03-10T21:09:16.691Z,99.90
2018-03-10T21:11:43.000Z,99.90
2018-03-10T21:14:09.312Z,99.80
2018-03-10T21:16:43.308Z,99.90
2018-03-10T21:19:09.621Z,99.80
2018-03-10T21:21:35.896Z,99.60
2018-03-10T21:24:02.216Z,99.40
2018-03-10T21:26:29.234Z,99.70
2018-03-10T21:28:55.487Z,99.40
2018-03-10T21:31:22.497Z,99.90
2018-03-10T21:33:48.776Z,99.90
2018-03-10T21:36:15.768Z,99.90
2018-03-10T21:38:42.112Z,99.90
2018-03-10T21:41:08.364Z,99.90
2018-03-10T21:43:34.632Z,99.90
2018-03-10T21:46:00.893Z,99.90
2018-03-10T21:48:27.211Z,99.90
2018-03-10T21:50:53.457Z,99.90
2018-03-10T21:53:19.726Z,99.90
2018-03-10T21:55:46.833Z,99.90
2018-03-10T21:58:13.012Z,99.90
2018-03-10T22:00:40.051Z,99.90
2018-03-10T22:03:07.076Z,99.90
2018-03-10T22:05:33.346Z,99.90
2018-03-10T22:07:59.609Z,99.90
2018-03-10T22:10:25.900Z,99.90
2018-03-10T22:12:52.137Z,99.90
2018-03-10T22:15:18.416Z,99.90
2018-03-10T22:17:44.688Z,99.90
2018-03-10T22:20:11.681Z,99.90
2018-03-10T22:22:38.002Z,99.90
2018-03-10T22:25:04.284Z,99.90
2018-03-10T22:27:31.297Z,99.90
2018-03-10T22:29:57.673Z,99.90
2018-03-10T22:32:24.205Z,99.90
2018-03-10T22:34:51.215Z,99.90
2018-03-10T22:37:17.488Z,99.90
2018-03-10T22:39:43.748Z,99.90
2018-03-10T22:42:10.001Z,99.90
2018-03-10T22:44:36.272Z,99.90
2018-03-10T22:47:03.304Z,99.90
2018-03-10T22:49:30.324Z,99.90
2018-03-10T22:51:56.631Z,99.90
2018-03-10T22:54:23.096Z,99.90
2018-03-10T22:56:49.349Z,99.90
2018-03-10T22:59:16.372Z,99.90
2018-03-10T23:01:42.696Z,99.90
2018-03-10T23:04:08.961Z,99.90
2018-03-10T23:06:35.976Z,99.90
2018-03-10T23:09:02.314Z,99.90
2018-03-10T23:11:28.585Z,99.90
2018-03-10T23:13:54.853Z,99.90
2018-03-10T23:16:21.139Z,99.90
2018-03-10T23:18:47.423Z,99.90
2018-03-10T23:21:13.700Z,99.90
2018-03-10T23:23:40.070Z,99.90
2018-03-10T23:26:06.379Z,99.90
2018-03-10T23:28:33.331Z,99.90
2018-03-10T23:30:59.623Z,99.90
2018-03-10T23:33:26.627Z,99.90
2018-03-10T23:35:52.877Z,99.90
2018-03-10T23:38:19.149Z,99.90
2018-03-10T23:40:45.480Z,99.90
2018-03-10T23:43:11.741Z,99.90
2018-03-10T23:45:38.099Z,99.90
2018-03-10T23:48:05.124Z,99.90
2018-03-10T23:50:31.406Z,99.90
2018-03-10T23:52:57.704Z,99.90
2018-03-10T23:55:23.980Z,99.90
2018-03-10T23:57:50.248Z,99.90
